Timeline UpdatesTrip UpdatesNews PostsPvt PostsTravel TipsAdmin PostsConv PostsFollowed PostsChat RequestsBlog PostsPNR Posts

Disclaimer
Search
 
 
Tue Jul 29, 2014 10:10:34 ISTHomeTrainsΣChainsAtlasPNRForumGalleryNewsFAQTripsMembersLoginFeedback
No Recent News for this Train
Other Trains in the News **new
Latest...
.
Mon Nov 18, 2013 (08:49PM)
⇐ Return Journey: Train# 14650

14649/Saryu Yamuna Express

Nov 18 2013 (8:48PM)
Change Departure Station:
Change Arrival Station:
Post a Train Travel TipPost a Train Travel Tip **new
Post a Comment/Question/Picture/VideoPost a Comment/Question/Picture/Video
Pantry/Catering
✕ NO Pantry Car
✕ NO Catering
Loco/Rake Reversals
SPJ/Samastipur Junction (9); SHG/Shahganj Junction (4);
RSA - Rake Sharing
14673/74 Shaheed Express.
Rake/Coach Composition
LOCO,SLR,UR,UR,S1,S2,S3,S4,B1,AB1,S5,S6,S7,UR,UR,UR,UR,UR,UR,UR,UR,SLR
Loco
JYG-DLI=>TKD WDM 3A DLI-ASR=>GZB WAP 5/7
News    PNR    Forum    Time-Table    Availability    Fare Chart    Map    Arr/Dep History    Trips    Gallery    ΣChains    X/O    Timeline    
Travel Time: 40h 55m    60 halts    Distance: 1671 km    Avg Speed: 40 km/hr
Type: Mail/Express
Zone: NR/Northern
Departs @ 06:30 (Avg 43m late)
Platform# ???
S T  F 
Jaynagar/JYG 
Arrives @ 23:25 +1 night (Avg 1h 25m late)
Platform# 4
 M W  S
Amritsar Junction/ASR 

60 halts. 273 intermediate Stations between Jaynagar and Amritsar Junction

Show ALL intermediate Stations  Show Old Time-Table

#CodeStation NameX/OArrivesAvgDepartsAvgHaltPFDay#KmSpeedElevZoneAddress
1JYG»Jaynagar (3)»  -06:30+43--10.05268mECRDistt: Madhubani, Bihar
2KJIKhajauli  06:44+4906:45+501m--112.05170mECRMadhubani, Bihar
3RJARajanagar  06:56+5406:57+561m--121.33565mECRRajnagar Distt: Madhubani, Bihar
4MBIMadhubani (3)  07:14+5507:15+1:001m--131.26062mECRMadhubani, Bihar
5PDWPandaulX  07:24+1:0407:25+1:061m--140.22159mECRMadhubani, Bihar
6SKISakri Junction (5)X  07:47+5807:52+1:005m--148.15055mECRMadhubani, Bihar
7TRSTarsarai  08:00+1:0308:01+1:051m--154.74454mECRDarbhanga, Bihar
8KKHTKakarghatti  08:10+1:0508:11+1:091m--161.31154mECRDarbhanga, Bihar
9DBGDarbhanga Junction (5)X  08:45+5009:13+3828m2167.74354mECRDarbhanga, Bihar
10LSILaheria Sarai (1)X  09:20+4109:25+415m1172.75752mECRDarbhanga, Bihar
11HYTHaiaghat  09:36+4809:37+511m--183.11951mECRDarbhanga, Bihar
12SPJSamastipur Junction (9)10:45+5011:05+3120m--1105.16355mECRSamastipur, Bihar
13MFPMuzaffarpur Junction (6)  11:55+5612:05+5910m31157.26057mECRMuzaffarpur, Bihar
14HJPHajipur Junction (3)X  12:59+1:2313:00+1:371m11211.13355mECR06224-272230, Bihar
15SEESonpur Junction (4)X  13:10+1:3813:20+1:3310m--1216.65056mECRSaran, Bihar
16CPRChhapra Junction (6)X  14:25+1:5014:40+1:5715m--1270.66558mNERDistt: Saran, Bihar
17SIPSuraimanpur  15:07+2:0815:08+2:101m--1299.75460mNERBallia, Uttar Pradesh
18STWSahatwarX  15:29+2:1215:30+2:151m--1318.85263mNERBallia district, Uttar Pradesh
19BUIBallia (3)  15:50+2:1815:55+2:195m--1336.25462mNERBallia, Uttar Pradesh
20RSRRasra (2)  16:31+2:2916:32+2:321m--1368.85170mNERRasra, Uttar Pradesh
21IAAIndara Junction (3)X  17:05+2:3017:07+2:312m--1397.23674mNERMau, Uttar Pradesh
22MAUMau Junction (4)  17:20+2:3317:35+2:2515m41405.05975mNERMau., Uttar Pradesh
23MMAMuhammadabad (2)X  17:57+2:2617:58+2:261m11426.72980mNERMuhammadabad Marg, Uttar Pradesh
24SAASathiaon (1)  18:17+2:1718:18+2:181m11435.84481mNERState Highway 34, Uttar Pradesh
25AMHAzamgarh (2)  18:35+2:1518:40+2:145m11448.36281mNERAzamgarh, Uttar Pradesh
26SMZSarai Mir (2)  19:05+2:1519:06+2:161m11474.24487mNERTowa Ahirana, Uttar Pradesh
27KRNDKhorason Road (2)  19:18+2:1519:19+2:151m11483.02885mNERUttar Pradesh 276304 ?, Uttar Pradesh
28SHGShahganj Junction (4)20:05+2:1520:30+2:2325m--1504.27490mNRShahganj, Uttar Pradesh
29ABPAkbarpur (2)  21:06+2:3721:08+2:382m11548.37492mNRAkbarpur, Uttar Pradesh
30AYAyodhya Junction (3)  21:52+2:4521:53+2:471m11602.21898mNRAyodhya, Uttar Pradesh
31FDFaizabad Junction (5)X  22:15+2:4722:20+2:485m11608.971104mNRFaizabad, Uttar Pradesh
32RDLRudauli (2)  22:52+2:5722:53+2:571m--1647.048112mNRRudauli, Uttar Pradesh
33BBKBarabanki Junction (4)X  00:10+2:4300:11+2:471m--2708.232122mNRPin-225001, Uttar Pradesh
34LKOLucknow Charbagh (9)X  01:05+2:4901:15+2:4910m22736.767123mNR226004, Uttar Pradesh
35SPNShahjahanpur Junction (3)X  03:43+2:5403:48+2:535m--2901.641156mNRShahjahanpur, Uttar Pradesh
36BEBareilly Junction (4)  05:30+2:3605:35+2:425m--2972.168174mNRBareilly, Uttar Pradesh
37RMURampur Junction (3)X  06:31+2:4906:32+2:531m--21035.134190mNRRampur, Uttar Pradesh
38MBMoradabad Junction (7)X  07:20+2:4507:30+2:4710m521062.461201mNRMoradabad, Uttar Pradesh
39AMROAmroha (3)X  08:00+2:5408:01+2:571m221092.936217mNRAmroha, Uttar Pradesh
40HPUHapur Junction (4)X  10:05+2:0310:10+2:015m--21166.439214mNRHapur Jn., Uttar Pradesh
41GZBGhaziabad Junction (6)  11:07+1:5311:09+1:542m321203.126217mNRGhaziabad, Uttar Pradesh
42DLIOld Delhi Junction (16)11:55+2:0512:45+2:0350m321223.213219mNRNear Chandni Chowk Metro Station, Delhi NCT
43SZMDelhi Sabzi Mandi (2)  12:59+2:1413:00+2:141m--21226.269220mNRGulabi Bagh, Delhi NCT
44SNPSonipat (3)  13:35+2:1513:36+2:171m--21266.562225mNRSonipat, Haryana
45PNPPanipat Junction (5)X  14:20+2:1014:25+2:085m321311.771235mNRPanipat, Haryana
46KUNKarnal (3)X  14:54+2:0614:55+2:071m--21346.164253mNRKarnal, Haryana
47KKDEKurukshetra Junction (3)  15:26+1:4815:28+1:482m121379.249260mNRKurukshetra, Haryana
48UMBAmbala Cantt. Junction (7)X  16:20+2:0316:30+2:0510m721421.335278mNRAmbala 133001, Haryana
49UBCAmbala City (3)  16:43+2:1016:44+2:141m321428.877273mNRNH-1, Haryana
50RPJRajpura Junction (3)XO  17:00+2:1417:01+2:191m121449.334272mNRNH-1, Punjab
51SIRSirhind Junction (3)  17:45+2:0117:47+2:022m121474.259271mNRSirhind, Punjab
52GVGMandi Gobindgarh (2)X  17:57+2:0517:58+2:091m221483.954268mNRMandi Gobindgarh, Punjab
53KNNKhanna (3)  18:07+2:0918:08+2:131m121492.144269mNRNH 1, Punjab
54DOADoraha (2)X  18:36+2:0518:37+2:211m121512.425261mNRDoraha, Punjab
55LDHLudhiana Junction (7)X  19:30+1:5619:40+2:0910m221534.933246mNRLudhiana 141001, Punjab
56PHRPhillaur Junction (3)X  20:04+2:1620:05+2:191m221548.068246mNRPhillaur, Punjab
57PGWPhagwara Junction (3)X  20:25+2:2020:26+2:221m221570.670245mNRPhagwara, Punjab
58JRCJalandhar Cantt. Junction (3)X  20:40+2:2320:42+2:232m121586.897239mNRNear Rama Mandi, Punjab
59JUCJalandhar City Junction (5)X  20:45+2:1720:55+2:1510m121591.737239mNRJalandhar 144001, Punjab
60KREKartarpur (2)  21:19+2:2421:20+2:291m221606.354236mNRKartarpur, Punjab
61BEASBeas Junction (2)X  21:44+2:1821:45+2:181m121627.826238mNRBeas, Punjab
62ASR•Amritsar Junction (5)•  23:25+1:25-421670.8-233mNRAmritsar 143002, Punjab
Scroll to Top
Scroll to Bottom